Weather History for New Ulm, MN

Change the Weather History Date:

Friday, October 26, 2012

  Actual Average Record
Temperature  
Mean Temperature 36 °F -  
Max Temperature 39 °F 58 °F 84 °F (1955)
Min Temperature 32 °F 35 °F 15 °F (1988)
Degree Days  
Heating Degree Days 30    
Moisture  
Dew Point 27 °F    
Average Humidity 70    
Maximum Humidity 81    
Minimum Humidity 56    
Precipitation  
Precipitation 0.00 in - - ()
Sea Level Pressure  
Sea Level Pressure 30.34 in    
Wind  
Wind Speed 11 mph (West)    
Max Wind Speed 17 mph    
Max Gust Speed 21 mph    
Visibility 10 miles    
Events      
Averages and records for this station are not official NWS values.
T = Trace of Precipitation, MM = Missing Value Source: NWS Daily Summary

Daily Weather History Graph

Daily Weather History Graph

Search for Another Location

Airport:

Trip Planner

Search our weather history database for the weather conditions in past years. The results will help you decide how hot, cold, wet, or windy it might be!

Date:

Astronomy

Oct. 26, 2012 Rise Set
Actual Time 7:47 AM CDT 6:15 PM CDT
Civil Twilight 7:17 AM CDT 6:45 PM CDT
Nautical Twilight 6:43 AM CDT 7:19 PM CDT
Astronomical Twilight 6:10 AM CDT 7:52 PM CDT
Moon 4:36 PM CDT 4:39 AM CDT
Length of Visible Light 11h 27m
Length of Day
10h 27m
Waxing Gibbous, 91% of the Moon is Illuminated
Oct 26
Waxing Gibbous
Oct 29
Full
Nov 6
Last Quarter
Nov 13
New
Nov 20
First Quarter

Hourly Weather History & Observations

Time (CDT) Temp. Windchill Dew Point Humidity Pressure Visibility Wind Dir Wind Speed Gust Speed Precip Events Conditions
12:33 AM 37.4 °F 30.3 °F 28.4 °F 70% 30.23 in 10.0 mi West 10.4 mph - N/A   Overcast
12:53 AM 37.4 °F 29.3 °F 28.4 °F 70% 30.23 in 10.0 mi West 12.7 mph - N/A   Overcast
1:13 AM 35.6 °F 27.1 °F 28.4 °F 75% 30.23 in 10.0 mi WNW 12.7 mph - N/A   Overcast
1:33 AM 35.6 °F 27.1 °F 28.4 °F 75% 30.23 in 10.0 mi West 12.7 mph - N/A   Mostly Cloudy
1:53 AM 35.6 °F 27.5 °F 28.4 °F 75% 30.24 in 10.0 mi West 11.5 mph - N/A   Mostly Cloudy
2:13 AM 35.6 °F 28.0 °F 28.4 °F 75% 30.24 in 10.0 mi West 10.4 mph - N/A   Mostly Cloudy
2:33 AM 35.6 °F 27.5 °F 28.4 °F 75% 30.24 in 10.0 mi WNW 11.5 mph - N/A   Clear
2:53 AM 35.6 °F 28.0 °F 28.4 °F 75% 30.25 in 10.0 mi West 10.4 mph - N/A   Clear
3:33 AM 33.8 °F 26.4 °F 28.4 °F 81% 30.25 in 10.0 mi West 9.2 mph - N/A   Clear
3:53 AM 33.8 °F 27.0 °F 28.4 °F 81% 30.26 in 10.0 mi West 8.1 mph - N/A   Clear
4:12 AM 33.8 °F 28.6 °F 28.4 °F 81% 30.26 in 10.0 mi West 5.8 mph - N/A   Clear
4:33 AM 33.8 °F 27.0 °F 28.4 °F 81% 30.27 in 10.0 mi West 8.1 mph - N/A   Clear
4:53 AM 33.8 °F 25.3 °F 28.4 °F 81% 30.27 in 10.0 mi West 11.5 mph - N/A   Clear
5:33 AM 33.8 °F 25.3 °F 26.6 °F 75% 30.29 in 10.0 mi West 11.5 mph - N/A   Clear
5:53 AM 33.8 °F 25.8 °F 26.6 °F 75% 30.30 in 10.0 mi West 10.4 mph - N/A   Clear
6:12 AM 32.0 °F 24.2 °F 26.6 °F 80% 30.31 in 10.0 mi West 9.2 mph - N/A   Clear
6:33 AM 32.0 °F 24.2 °F 26.6 °F 80% 30.32 in 10.0 mi West 9.2 mph - N/A   Clear
6:53 AM 33.8 °F 25.8 °F 26.6 °F 75% 30.33 in 10.0 mi WNW 10.4 mph - N/A   Mostly Cloudy
7:13 AM 33.8 °F 26.4 °F 26.6 °F 75% 30.33 in 10.0 mi WNW 9.2 mph - N/A   Overcast
7:33 AM 33.8 °F 27.0 °F 26.6 °F 75% 30.34 in 10.0 mi West 8.1 mph - N/A   Overcast
7:53 AM 35.6 °F 26.6 °F 26.6 °F 70% 30.34 in 10.0 mi WNW 13.8 mph - N/A   Overcast
8:13 AM 35.6 °F 29.2 °F 26.6 °F 70% 30.36 in 10.0 mi West 8.1 mph - N/A   Overcast
8:33 AM 35.6 °F 29.2 °F 28.4 °F 75% 30.37 in 10.0 mi WNW 8.1 mph - N/A   Overcast
8:52 AM 35.6 °F 29.2 °F 28.4 °F 75% 30.37 in 10.0 mi WNW 8.1 mph - N/A   Overcast
9:13 AM 35.6 °F 28.6 °F 28.4 °F 75% 30.38 in 10.0 mi WNW 9.2 mph - N/A   Overcast
9:33 AM 35.6 °F 29.9 °F 28.4 °F 75% 30.39 in 10.0 mi West 6.9 mph - N/A   Overcast
9:52 AM 35.6 °F 29.2 °F 28.4 °F 75% 30.40 in 10.0 mi West 8.1 mph - N/A   Overcast
10:13 AM 37.4 °F 29.8 °F 28.4 °F 70% 30.40 in 10.0 mi WNW 11.5 mph - N/A   Overcast
10:33 AM 37.4 °F 29.3 °F 26.6 °F 65% 30.40 in 10.0 mi WNW 12.7 mph - N/A   Mostly Cloudy
10:52 AM 37.4 °F 30.8 °F 26.6 °F 65% 30.40 in 10.0 mi WNW 9.2 mph 17.3 mph N/A   Mostly Cloudy
11:13 AM 37.4 °F 29.8 °F 26.6 °F 65% 30.39 in 10.0 mi WNW 11.5 mph - N/A   Mostly Cloudy
11:33 AM 37.4 °F 29.3 °F 26.6 °F 65% 30.40 in 10.0 mi West 12.7 mph - N/A   Mostly Cloudy
11:52 AM 39.2 °F 31.2 °F 26.6 °F 61% 30.39 in 10.0 mi West 13.8 mph - N/A   Mostly Cloudy
12:13 PM 39.2 °F 30.2 °F 24.8 °F 56% 30.39 in 10.0 mi WNW 17.3 mph - N/A   Mostly Cloudy
12:33 PM 39.2 °F 30.5 °F 24.8 °F 56% 30.39 in 10.0 mi WNW 16.1 mph - N/A   Mostly Cloudy
12:52 PM 39.2 °F 30.8 °F 26.6 °F 61% 30.38 in 10.0 mi WNW 15.0 mph - N/A   Mostly Cloudy
1:13 PM 39.2 °F 32.5 °F 26.6 °F 61% 30.38 in 10.0 mi West 10.4 mph - N/A   Scattered Clouds
1:33 PM 39.2 °F 31.6 °F 24.8 °F 56% 30.38 in 10.0 mi West 12.7 mph 19.6 mph N/A   Mostly Cloudy
1:52 PM 39.2 °F 32.0 °F 24.8 °F 56% 30.37 in 10.0 mi West 11.5 mph - N/A   Overcast
2:13 PM 39.2 °F 31.6 °F 24.8 °F 56% 30.37 in 10.0 mi West 12.7 mph 18.4 mph N/A   Overcast
2:33 PM 39.2 °F 31.6 °F 24.8 °F 56% 30.37 in 10.0 mi West 12.7 mph - N/A   Overcast
2:52 PM 39.2 °F 30.5 °F 26.6 °F 61% 30.36 in 10.0 mi WNW 16.1 mph - N/A   Overcast
3:13 PM 39.2 °F 31.2 °F 26.6 °F 61% 30.36 in 10.0 mi WNW 13.8 mph - N/A   Overcast
3:33 PM 39.2 °F 30.5 °F 24.8 °F 56% 30.36 in 10.0 mi West 16.1 mph - N/A   Overcast
3:53 PM 39.2 °F 32.0 °F 26.6 °F 61% 30.36 in 10.0 mi West 11.5 mph - N/A   Overcast
4:13 PM 39.2 °F 32.0 °F 24.8 °F 56% 30.36 in 10.0 mi West 11.5 mph - N/A   Overcast
4:32 PM 39.2 °F 30.5 °F 26.6 °F 61% 30.36 in 10.0 mi West 16.1 mph 20.7 mph N/A   Overcast
4:53 PM 39.2 °F 32.0 °F 26.6 °F 61% 30.36 in 10.0 mi West 11.5 mph - N/A   Overcast
5:13 PM 39.2 °F 32.5 °F 26.6 °F 61% 30.36 in 10.0 mi West 10.4 mph - N/A   Overcast
5:33 PM 37.4 °F 30.8 °F 26.6 °F 65% 30.36 in 10.0 mi West 9.2 mph - N/A   Overcast
5:53 PM 37.4 °F 29.8 °F 26.6 °F 65% 30.36 in 10.0 mi West 11.5 mph - N/A   Overcast
6:13 PM 37.4 °F 29.8 °F 26.6 °F 65% 30.36 in 10.0 mi West 11.5 mph - N/A   Overcast
6:32 PM 37.4 °F 30.3 °F 26.6 °F 65% 30.36 in 10.0 mi West 10.4 mph - N/A   Overcast
6:53 PM 37.4 °F 30.8 °F 26.6 °F 65% 30.37 in 10.0 mi West 9.2 mph - N/A   Overcast
7:13 PM 37.4 °F 31.4 °F 28.4 °F 70% 30.36 in 10.0 mi West 8.1 mph - N/A   Overcast
7:32 PM 37.4 °F 30.3 °F 28.4 °F 70% 30.37 in 10.0 mi West 10.4 mph - N/A   Overcast
7:53 PM 35.6 °F 29.2 °F 28.4 °F 75% 30.37 in 10.0 mi West 8.1 mph - N/A   Overcast
8:13 PM 35.6 °F 29.9 °F 28.4 °F 75% 30.37 in 10.0 mi West 6.9 mph - N/A   Overcast
8:32 PM 35.6 °F 31.7 °F 28.4 °F 75% 30.37 in 10.0 mi West 4.6 mph - N/A   Overcast
8:53 PM 35.6 °F 30.7 °F 28.4 °F 75% 30.36 in 10.0 mi West 5.8 mph - N/A   Overcast
9:13 PM 35.6 °F 29.9 °F 28.4 °F 75% 30.37 in 10.0 mi West 6.9 mph - N/A   Overcast
9:32 PM 35.6 °F 30.7 °F 28.4 °F 75% 30.36 in 10.0 mi West 5.8 mph - N/A   Overcast
9:53 PM 35.6 °F 31.7 °F 28.4 °F 75% 30.36 in 10.0 mi West 4.6 mph - N/A   Overcast
10:33 PM 33.8 °F 28.6 °F 26.6 °F 75% 30.36 in 10.0 mi West 5.8 mph - N/A   Overcast
10:53 PM 33.8 °F 29.6 °F 26.6 °F 75% 30.36 in 10.0 mi West 4.6 mph - N/A   Overcast
11:13 PM 33.8 °F 29.6 °F 26.6 °F 75% 30.36 in 10.0 mi West 4.6 mph - N/A   Overcast
11:33 PM 33.8 °F 30.8 °F 26.6 °F 75% 30.36 in 10.0 mi West 3.5 mph - N/A   Overcast